Greenville, Mississippi
Current Conditions -  °F | °C
As of 1:53 PM on Thursday 27 Nov 2014 (Local Time) from KGLH Reporting Station
Clear Clear  
Wind Chill:   Ceiling: Unl
Heat Index:   Visibility: 10mi
Dew Point: -1°   Wind: 5mph
Humidity: 54%   Direction: NA
Pressure: 30.48"   Gusts: NA
Location:  33.4°N, 91.04°W
Report Text: KGLH 271953Z AUTO VRB04KT 10SM CLR 08/M01 A3048 RMK AO2 SLP330 T00781011
Loading
Personal Weather Stations






























Interactive Weather Map New forecast layout! Learn more

10-Day Weather Forecast

Advertisements
Track Severe Weather on mobile